Time;durP1;ratioP1;P1;durP2;ratioP2;P2;SDS_P1;SDS_P2;PMS_P1;PMS_P2;Temp;Humidity;BMP_temperature;BMP_pressure;BME280_temperature;BME280_humidity;BME280_pressure;Samples;Min_cycle;Max_cycle;Signal;HPM_P1;HPM_P2
2023/12/10 00:02:22;;;;;;;1.80;1.30;;;;;;;7.55;100.00;98277.41;4997445;28;20271;-78
2023/12/10 00:04:50;;;;;;;1.90;1.63;;;;;;;7.54;100.00;98262.75;4997303;28;20201;-78
2023/12/10 00:07:16;;;;;;;2.17;1.50;;;;;;;7.51;100.00;98242.97;4996916;28;20792;-78
2023/12/10 00:09:42;;;;;;;3.20;1.73;;;;;;;7.52;100.00;98221.28;4997417;28;20201;-78
2023/12/10 00:12:09;;;;;;;2.10;1.90;;;;;;;7.56;100.00;98227.19;4997267;28;20208;-78
2023/12/10 00:14:35;;;;;;;3.73;2.17;;;;;;;7.63;100.00;98235.56;4997418;28;20628;-78
2023/12/10 00:17:01;;;;;;;3.70;2.97;;;;;;;7.50;100.00;98227.47;4997051;28;20201;-78
2023/12/10 00:19:28;;;;;;;3.57;2.40;;;;;;;7.68;100.00;98215.44;4997926;28;20291;-78
2023/12/10 00:21:55;;;;;;;2.77;2.40;;;;;;;7.71;100.00;98233.47;4996248;28;20206;-78
2023/12/10 00:24:22;;;;;;;5.53;2.83;;;;;;;7.74;100.00;98241.16;4995910;28;20214;-78
2023/12/10 00:26:48;;;;;;;3.80;2.50;;;;;;;7.59;100.00;98240.06;4996598;28;20230;-78
2023/12/10 00:29:14;;;;;;;6.67;2.83;;;;;;;7.69;100.00;98240.50;4996735;28;20221;-78
2023/12/10 00:31:43;;;;;;;5.20;3.40;;;;;;;7.74;100.00;98241.97;4997044;28;20293;-78
2023/12/10 00:34:09;;;;;;;5.03;3.70;;;;;;;7.83;100.00;98253.75;4996840;28;20214;-78
2023/12/10 00:36:36;;;;;;;8.37;4.57;;;;;;;7.68;100.00;98244.84;4988048;28;20207;-78
2023/12/10 00:39:05;;;;;;;7.43;3.70;;;;;;;7.85;100.00;98232.88;4997334;28;20307;-78
2023/12/10 00:41:32;;;;;;;9.20;4.37;;;;;;;7.82;100.00;98238.22;4997129;28;20250;-78
2023/12/10 00:43:58;;;;;;;9.80;5.20;;;;;;;7.81;100.00;98244.31;4996915;28;20215;-78
2023/12/10 00:46:25;;;;;;;9.03;5.80;;;;;;;7.76;100.00;98250.56;4995867;28;20214;-78
2023/12/10 00:48:51;;;;;;;10.00;5.33;;;;;;;7.88;100.00;98241.38;4996363;28;20278;-78
2023/12/10 00:51:21;;;;;;;11.00;5.73;;;;;;;7.91;100.00;98245.63;4996105;28;20209;-78
2023/12/10 00:53:48;;;;;;;15.10;6.67;;;;;;;7.97;100.00;98247.94;4998120;28;20276;-78
2023/12/10 00:56:15;;;;;;;12.33;6.03;;;;;;;7.94;100.00;98267.09;4996244;28;20205;-78
2023/12/10 00:58:42;;;;;;;12.97;5.70;;;;;;;7.86;100.00;98265.75;4996566;28;20220;-78
2023/12/10 01:01:08;;;;;;;20.70;6.13;;;;;;;7.86;100.00;98252.75;4996327;28;20646;-78
2023/12/10 01:03:35;;;;;;;11.53;5.87;;;;;;;7.96;100.00;98273.06;4995960;28;20209;-79
2023/12/10 01:06:03;;;;;;;12.20;5.87;;;;;;;7.94;100.00;98276.66;4995431;28;20670;-78
2023/12/10 01:08:30;;;;;;;14.40;4.93;;;;;;;7.96;100.00;98272.22;4995748;28;20235;-78
2023/12/10 01:10:56;;;;;;;11.80;5.53;;;;;;;8.03;100.00;98285.81;4996417;28;20276;-78
2023/12/10 01:13:24;;;;;;;14.20;5.97;;;;;;;8.05;100.00;98289.19;4995629;28;20590;-78
2023/12/10 01:15:51;;;;;;;14.40;5.17;;;;;;;8.07;100.00;98298.59;4997103;28;20207;-78
2023/12/10 01:18:17;;;;;;;16.40;4.67;;;;;;;8.00;100.00;98299.75;4996297;28;20268;-78
2023/12/10 01:20:43;;;;;;;14.97;4.93;;;;;;;8.15;100.00;98316.47;4996610;28;20299;-79
2023/12/10 01:23:10;;;;;;;7.77;4.30;;;;;;;8.13;100.00;98323.47;4995981;28;20208;-79
2023/12/10 01:25:36;;;;;;;14.50;4.87;;;;;;;8.13;100.00;98323.47;4996860;28;20211;-79
2023/12/10 01:28:02;;;;;;;14.20;5.17;;;;;;;8.13;100.00;98331.28;4996121;28;20259;-78
2023/12/10 01:30:30;;;;;;;12.30;4.43;;;;;;;8.14;100.00;98332.94;4996355;28;20211;-78
2023/12/10 01:32:58;;;;;;;12.93;6.03;;;;;;;8.17;100.00;98351.03;4997001;28;20280;-78
2023/12/10 01:35:24;;;;;;;13.43;5.80;;;;;;;8.15;100.00;98358.88;4995980;28;20218;-79
2023/12/10 01:37:51;;;;;;;15.27;4.67;;;;;;;8.20;100.00;98343.06;4996963;28;20293;-79
2023/12/10 01:40:19;;;;;;;13.30;4.60;;;;;;;8.00;100.00;98363.88;4997224;28;20716;-79
2023/12/10 01:42:45;;;;;;;25.07;5.00;;;;;;;8.01;100.00;98344.75;4996371;28;20265;-79
2023/12/10 01:45:12;;;;;;;9.77;5.00;;;;;;;8.19;100.00;98367.38;4996302;28;20220;-78
2023/12/10 01:47:43;;;;;;;14.23;5.53;;;;;;;8.18;100.00;98381.28;4996091;28;20258;-78
2023/12/10 01:50:11;;;;;;;24.97;6.40;;;;;;;8.26;100.00;98389.59;4996406;28;20211;-79
2023/12/10 01:52:37;;;;;;;17.50;4.40;;;;;;;8.31;100.00;98397.22;4995070;28;20273;-78
2023/12/10 01:55:05;;;;;;;18.77;4.73;;;;;;;8.24;100.00;98427.81;4996331;28;20253;-78
2023/12/10 01:57:33;;;;;;;13.13;4.33;;;;;;;8.32;100.00;98448.28;4995663;28;20258;-78
2023/12/10 02:00:00;;;;;;;13.47;3.63;;;;;;;8.26;100.00;98469.31;4997026;28;20226;-79
2023/12/10 02:02:28;;;;;;;17.00;4.10;;;;;;;8.15;100.00;98490.56;4996406;28;20206;-79
2023/12/10 02:04:57;;;;;;;17.57;4.03;;;;;;;8.21;100.00;98505.06;4996239;28;20211;-79
2023/12/10 02:07:23;;;;;;;12.77;4.80;;;;;;;8.22;100.00;98515.38;4996079;28;20289;-80
2023/12/10 02:09:51;;;;;;;17.73;4.80;;;;;;;8.20;100.00;98522.41;4996948;28;20206;-79
2023/12/10 02:12:18;;;;;;;18.50;4.13;;;;;;;8.35;100.00;98531.34;4996687;28;20206;-79
2023/12/10 02:14:45;;;;;;;18.67;3.90;;;;;;;8.30;100.00;98546.28;4996372;28;20211;-79
2023/12/10 02:17:11;;;;;;;16.43;4.57;;;;;;;8.29;100.00;98560.19;4996747;28;20258;-79
2023/12/10 02:19:37;;;;;;;15.93;5.40;;;;;;;8.39;100.00;98573.66;4995494;28;20231;-78
2023/12/10 02:22:05;;;;;;;15.47;3.93;;;;;;;8.42;100.00;98597.78;4997019;28;20211;-78
2023/12/10 02:24:34;;;;;;;14.03;4.17;;;;;;;8.37;100.00;98619.69;4998102;28;20258;-79
2023/12/10 02:27:03;;;;;;;19.07;4.53;;;;;;;8.22;100.00;98623.72;4996277;28;20203;-79
2023/12/10 02:29:29;;;;;;;10.83;3.57;;;;;;;8.40;100.00;98638.59;4995642;28;20207;-78
2023/12/10 02:31:55;;;;;;;20.70;4.77;;;;;;;8.43;100.00;98643.72;4995480;28;20204;-78
2023/12/10 02:34:22;;;;;;;18.93;5.60;;;;;;;8.43;99.86;98661.06;4995899;28;20206;-78
2023/12/10 02:36:48;;;;;;;20.27;4.90;;;;;;;8.31;99.55;98685.75;4996185;28;20211;-79
2023/12/10 02:39:15;;;;;;;23.43;4.27;;;;;;;8.62;98.18;98687.19;4996211;28;20235;-79
2023/12/10 02:41:44;;;;;;;14.57;4.63;;;;;;;8.76;97.12;98723.94;4996085;28;20228;-79
2023/12/10 02:44:12;;;;;;;16.03;4.00;;;;;;;8.66;96.10;98741.66;4996198;28;20678;-79
2023/12/10 02:46:38;;;;;;;22.77;4.67;;;;;;;8.66;95.38;98764.19;4995499;28;20208;-79
2023/12/10 02:49:04;;;;;;;15.43;5.13;;;;;;;8.76;95.12;98765.56;4995805;28;20808;-79
2023/12/10 02:51:31;;;;;;;13.77;4.00;;;;;;;8.82;94.97;98786.13;4995802;28;20204;-79
2023/12/10 02:53:57;;;;;;;25.70;5.67;;;;;;;8.88;94.21;98798.91;4995751;28;20203;-79
2023/12/10 02:56:23;;;;;;;17.50;4.80;;;;;;;8.64;93.34;98837.09;4996503;28;20677;-79
2023/12/10 02:58:49;;;;;;;20.67;4.87;;;;;;;8.73;93.54;98841.09;4995945;28;20219;-79
2023/12/10 03:01:17;;;;;;;20.77;5.37;;;;;;;8.81;93.26;98853.81;4995793;28;20231;-79
2023/12/10 03:03:43;;;;;;;15.03;5.20;;;;;;;8.77;93.05;98860.88;4996040;28;20211;-79
2023/12/10 03:06:10;;;;;;;23.37;4.97;;;;;;;8.84;92.65;98879.72;4995222;28;20207;-79
2023/12/10 03:08:36;;;;;;;15.30;5.17;;;;;;;8.69;93.10;98878.53;4995589;28;20238;-79
2023/12/10 03:11:03;;;;;;;14.73;5.00;;;;;;;8.77;92.87;98878.25;4996236;28;20232;-80
2023/12/10 03:13:29;;;;;;;16.10;5.87;;;;;;;8.43;94.00;98872.50;4995514;28;20207;-79
2023/12/10 03:15:55;;;;;;;22.90;5.43;;;;;;;8.15;96.00;98838.81;4995862;28;20230;-79
2023/12/10 03:18:23;;;;;;;20.97;5.67;;;;;;;8.20;97.15;98807.47;4996098;28;20258;-79
2023/12/10 03:20:49;;;;;;;17.80;6.23;;;;;;;8.20;98.19;98789.25;4996566;28;20258;-79
2023/12/10 03:23:17;;;;;;;16.47;5.03;;;;;;;8.13;98.77;98763.50;4994807;28;20286;-79
2023/12/10 03:25:43;;;;;;;18.63;5.60;;;;;;;8.18;99.13;98752.91;4995710;28;20274;-79
2023/12/10 03:28:10;;;;;;;16.40;5.37;;;;;;;8.12;99.20;98747.94;4996000;28;20347;-79
2023/12/10 03:30:36;;;;;;;21.00;5.37;;;;;;;8.09;98.76;98750.69;4993774;28;20204;-79
2023/12/10 03:33:02;;;;;;;27.47;5.80;;;;;;;8.24;98.72;98737.09;4989243;28;20200;-79
2023/12/10 03:35:30;;;;;;;19.90;5.47;;;;;;;8.09;98.79;98737.69;4996229;28;20641;-79
2023/12/10 03:37:56;;;;;;;17.87;4.70;;;;;;;8.06;99.81;98730.81;4995403;28;20239;-79
2023/12/10 03:40:22;;;;;;;23.77;5.77;;;;;;;8.02;100.00;98721.44;4995629;28;20224;-79
2023/12/10 03:42:49;;;;;;;23.17;5.23;;;;;;;8.04;100.00;98714.44;4987130;28;20203;-80
2023/12/10 03:45:15;;;;;;;15.03;5.77;;;;;;;8.00;100.00;98712.88;4995637;28;20218;-79
2023/12/10 03:47:46;;;;;;;21.10;5.07;;;;;;;8.00;99.20;98719.81;4995772;28;20798;-79
2023/12/10 03:50:13;;;;;;;18.47;5.20;;;;;;;8.00;99.69;98730.22;4995688;28;20211;-79
2023/12/10 03:52:40;;;;;;;17.03;5.10;;;;;;;7.93;99.85;98720.03;4995076;28;20694;-79
2023/12/10 03:55:08;;;;;;;24.67;5.63;;;;;;;7.93;99.83;98724.41;4996667;28;20242;-79
2023/12/10 03:57:35;;;;;;;13.13;5.47;;;;;;;8.10;99.80;98723.78;4996654;28;20229;-79
2023/12/10 04:00:02;;;;;;;13.70;5.47;;;;;;;8.25;100.00;98698.97;4999368;28;20203;-79
2023/12/10 04:02:28;;;;;;;17.90;4.83;;;;;;;8.24;98.08;98746.66;4998942;28;20215;-79
2023/12/10 04:04:55;;;;;;;18.77;4.77;;;;;;;8.54;96.48;98762.88;4998433;28;20207;-79
2023/12/10 04:07:21;;;;;;;18.33;4.87;;;;;;;8.54;95.14;98807.09;4998112;28;20223;-79
2023/12/10 04:09:49;;;;;;;17.23;5.03;;;;;;;8.63;94.75;98830.19;4999862;28;20210;-79
2023/12/10 04:12:15;;;;;;;14.53;5.30;;;;;;;8.67;94.69;98849.97;4998846;28;20260;-80
2023/12/10 04:14:41;;;;;;;16.80;5.53;;;;;;;8.62;94.20;98864.03;4999681;28;20586;-79
2023/12/10 04:17:08;;;;;;;14.30;4.10;;;;;;;8.54;94.83;98864.31;4998727;28;20209;-79
2023/12/10 04:19:34;;;;;;;15.67;5.20;;;;;;;8.67;95.44;98847.38;4998495;28;20226;-79
2023/12/10 04:22:00;;;;;;;15.20;5.20;;;;;;;8.34;97.64;98829.47;4998670;28;20270;-79
2023/12/10 04:24:26;;;;;;;22.87;4.57;;;;;;;8.45;96.84;98826.50;4998824;28;20238;-79
2023/12/10 04:26:54;;;;;;;15.90;4.17;;;;;;;8.58;96.56;98826.03;4990488;28;20211;-79
2023/12/10 04:29:20;;;;;;;16.83;4.57;;;;;;;8.31;96.81;98832.16;4999095;28;20246;-79
2023/12/10 04:31:47;;;;;;;14.73;3.77;;;;;;;8.48;97.36;98805.59;4998381;28;20203;-79
2023/12/10 04:34:13;;;;;;;17.53;4.70;;;;;;;8.32;97.70;98815.69;4998501;28;20623;-80
2023/12/10 04:36:39;;;;;;;15.13;4.50;;;;;;;7.91;100.00;98773.81;4998065;28;20214;-79
2023/12/10 04:39:08;;;;;;;17.20;4.27;;;;;;;7.82;100.00;98734.31;4999089;28;20289;-79
2023/12/10 04:41:35;;;;;;;12.10;3.47;;;;;;;7.82;100.00;98711.78;4998802;28;20302;-79
2023/12/10 04:44:02;;;;;;;11.70;4.60;;;;;;;7.81;100.00;98698.84;4998884;28;20207;-79
2023/12/10 04:46:29;;;;;;;12.33;3.90;;;;;;;7.85;100.00;98703.00;4998229;28;20213;-79
2023/12/10 04:48:55;;;;;;;10.20;3.60;;;;;;;7.86;100.00;98694.34;4998494;28;20223;-79
2023/12/10 04:51:24;;;;;;;9.00;3.30;;;;;;;7.89;100.00;98679.50;4998594;28;20207;-80
2023/12/10 04:53:50;;;;;;;14.67;4.73;;;;;;;8.16;100.00;98681.97;4998088;28;20203;-79
2023/12/10 04:56:16;;;;;;;16.67;3.60;;;;;;;8.50;99.37;98714.50;4999039;28;20260;-79
2023/12/10 04:58:43;;;;;;;14.73;4.97;;;;;;;8.70;97.61;98751.03;4998049;28;20234;-79
2023/12/10 05:01:10;;;;;;;12.73;3.43;;;;;;;8.50;96.92;98777.78;4998297;28;20227;-80
2023/12/10 05:03:37;;;;;;;13.50;3.03;;;;;;;8.66;96.37;98798.00;4997868;28;20205;-79
2023/12/10 05:06:03;;;;;;;13.43;4.07;;;;;;;8.69;96.37;98796.13;4997222;28;20203;-79
2023/12/10 05:08:29;;;;;;;9.23;3.37;;;;;;;8.66;96.24;98803.19;4997298;28;20236;-79
2023/12/10 05:10:56;;;;;;;14.57;3.47;;;;;;;8.69;96.06;98818.69;4986055;28;20204;-79
2023/12/10 05:13:22;;;;;;;10.07;3.73;;;;;;;8.62;96.18;98823.28;4998037;28;20288;-79
2023/12/10 05:15:49;;;;;;;11.77;3.70;;;;;;;8.66;95.36;98826.59;4998381;28;20239;-79
2023/12/10 05:18:16;;;;;;;10.87;2.93;;;;;;;8.64;94.73;98844.03;4996697;28;20234;-79
2023/12/10 05:20:43;;;;;;;13.17;4.13;;;;;;;8.53;94.48;98860.88;4996869;28;20229;-79
2023/12/10 05:23:09;;;;;;;12.53;3.33;;;;;;;8.67;93.99;98862.13;4996296;28;20619;-78
2023/12/10 05:25:36;;;;;;;10.37;3.50;;;;;;;8.53;94.37;98873.03;4996401;28;20214;-79
2023/12/10 05:28:02;;;;;;;13.83;3.33;;;;;;;8.58;94.04;98875.47;4996189;28;20255;-79
2023/12/10 05:30:28;;;;;;;13.10;6.07;;;;;;;8.61;92.72;98888.38;4996215;28;20276;-79
2023/12/10 05:32:55;;;;;;;12.77;3.27;;;;;;;8.69;92.59;98883.72;4996603;28;20216;-79
2023/12/10 05:35:22;;;;;;;7.50;3.87;;;;;;;8.52;91.95;98910.34;4996461;28;20685;-79
2023/12/10 05:37:49;;;;;;;10.40;3.20;;;;;;;8.67;91.67;98916.75;4994871;28;20240;-79
2023/12/10 05:40:15;;;;;;;11.00;3.53;;;;;;;8.61;91.60;98941.22;4995640;28;20666;-79
2023/12/10 05:42:42;;;;;;;10.27;3.60;;;;;;;8.66;91.14;98934.13;4995628;28;20771;-78
2023/12/10 05:45:09;;;;;;;8.40;3.17;;;;;;;8.58;91.72;98935.28;4996203;28;20209;-79
2023/12/10 05:47:35;;;;;;;11.10;4.07;;;;;;;8.64;91.05;98932.47;4995835;28;20362;-79
2023/12/10 05:50:02;;;;;;;12.10;2.83;;;;;;;8.60;91.38;98938.66;4996234;28;20218;-79
2023/12/10 05:52:30;;;;;;;7.77;3.40;;;;;;;8.57;92.25;98926.63;4996558;28;20293;-78
2023/12/10 05:54:56;;;;;;;8.87;2.50;;;;;;;8.47;93.48;98913.09;4996706;28;20206;-77
2023/12/10 05:57:23;;;;;;;14.70;3.10;;;;;;;8.46;93.95;98905.34;5000118;28;20229;-78
2023/12/10 05:59:49;;;;;;;10.27;3.73;;;;;;;8.46;92.92;98905.34;5024010;23;20227;-78
2023/12/10 06:02:16;;;;;;;6.67;2.30;;;;;;;8.20;92.76;98909.66;5015722;28;20616;-79
2023/12/10 06:04:42;;;;;;;4.33;1.80;;;;;;;8.21;93.01;98907.94;5007353;28;20275;-78
2023/12/10 06:07:08;;;;;;;3.83;1.77;;;;;;;8.34;92.69;98901.38;5015146;28;20210;-79
2023/12/10 06:09:36;;;;;;;6.83;2.03;;;;;;;8.43;92.58;98903.72;5016725;28;20241;-79
2023/12/10 06:12:02;;;;;;;6.27;2.33;;;;;;;8.20;93.05;98916.63;5016282;28;20201;-81
2023/12/10 06:14:29;;;;;;;4.83;2.03;;;;;;;8.38;93.74;98887.38;5016271;28;20205;-79
2023/12/10 06:16:55;;;;;;;6.40;1.90;;;;;;;8.38;93.43;98891.75;5016644;28;20309;-79
2023/12/10 06:19:22;;;;;;;10.07;2.93;;;;;;;8.41;93.81;98907.25;5017250;28;20232;-79
2023/12/10 06:21:48;;;;;;;5.23;1.90;;;;;;;8.37;94.52;98890.91;5015048;28;20224;-79
2023/12/10 06:24:14;;;;;;;5.83;1.57;;;;;;;8.43;94.53;98880.31;5015603;28;20209;-79
2023/12/10 06:26:42;;;;;;;8.37;2.07;;;;;;;8.48;94.13;98890.53;5015488;28;20285;-79
2023/12/10 06:29:08;;;;;;;8.20;2.60;;;;;;;8.30;93.78;98897.19;5015596;28;20229;-81
2023/12/10 06:31:35;;;;;;;7.27;1.60;;;;;;;8.31;94.24;98897.16;5015352;28;20201;-80
2023/12/10 06:34:01;;;;;;;6.27;1.53;;;;;;;8.20;93.65;98924.41;5016412;28;20204;-80
2023/12/10 06:36:27;;;;;;;3.00;1.47;;;;;;;8.32;93.87;98903.19;5015482;28;20218;-80
2023/12/10 06:38:54;;;;;;;3.90;1.50;;;;;;;8.30;93.81;98905.84;5016223;28;20209;-81
2023/12/10 06:41:20;;;;;;;2.40;1.13;;;;;;;8.19;94.73;98905.38;5015680;28;20357;-80
2023/12/10 06:43:48;;;;;;;3.67;1.37;;;;;;;8.22;94.22;98902.66;5015502;28;20270;-81
2023/12/10 06:46:17;;;;;;;4.17;1.30;;;;;;;8.19;94.58;98918.38;5015833;28;20202;-81
2023/12/10 06:48:43;;;;;;;4.00;1.33;;;;;;;8.16;94.50;98910.66;5015697;28;20300;-78
2023/12/10 06:51:10;;;;;;;5.70;1.90;;;;;;;8.11;94.89;98907.41;5014855;28;20203;-79
2023/12/10 06:53:36;;;;;;;4.57;2.10;;;;;;;8.13;95.44;98908.19;5015077;28;20249;-80
2023/12/10 06:56:03;;;;;;;3.07;2.40;;;;;;;8.08;95.94;98904.88;5015184;28;20254;-81
2023/12/10 06:58:29;;;;;;;3.37;1.40;;;;;;;8.12;95.99;98896.09;5015406;28;20214;-80
2023/12/10 07:00:57;;;;;;;4.27;1.40;;;;;;;7.99;95.78;98907.78;5014491;28;20759;-78
2023/12/10 07:03:23;;;;;;;3.17;1.80;;;;;;;8.03;95.84;98907.66;5014481;28;20212;-80
2023/12/10 07:05:49;;;;;;;3.10;1.40;;;;;;;8.01;96.77;98880.00;5015687;28;20220;-80
2023/12/10 07:08:16;;;;;;;5.37;1.13;;;;;;;8.09;97.23;98872.81;5015112;28;20209;-80
2023/12/10 07:10:42;;;;;;;3.93;1.60;;;;;;;8.00;98.39;98867.91;5015552;28;20223;-80
2023/12/10 07:13:09;;;;;;;4.50;1.83;;;;;;;8.05;97.89;98855.63;5014913;28;20207;-80
2023/12/10 07:15:35;;;;;;;4.33;1.50;;;;;;;8.04;97.73;98864.31;5015144;28;20203;-80
2023/12/10 07:18:03;;;;;;;5.17;1.27;;;;;;;8.09;97.72;98863.25;5014944;28;20254;-81
2023/12/10 07:20:29;;;;;;;3.70;1.37;;;;;;;8.10;97.41;98879.69;5015981;28;20228;-78
2023/12/10 07:22:56;;;;;;;5.07;1.40;;;;;;;7.93;98.74;98878.53;5014316;28;20232;-80
2023/12/10 07:25:22;;;;;;;3.70;1.23;;;;;;;7.98;98.00;98874.91;5016372;28;20206;-80
2023/12/10 07:27:49;;;;;;;4.10;1.57;;;;;;;7.91;98.23;98887.28;5015219;28;20220;-80
2023/12/10 07:30:15;;;;;;;4.03;1.40;;;;;;;8.05;98.15;98886.81;5015661;28;20277;-81
2023/12/10 07:32:42;;;;;;;5.00;1.70;;;;;;;7.95;98.21;98896.66;5016551;28;20685;-79
2023/12/10 07:35:10;;;;;;;4.07;1.53;;;;;;;7.93;97.66;98895.88;5020791;28;20213;-82
2023/12/10 07:37:36;;;;;;;3.77;1.30;;;;;;;8.04;98.26;98898.09;5019854;28;20213;-80
2023/12/10 07:40:02;;;;;;;4.70;1.20;;;;;;;8.07;97.50;98893.66;5019729;28;20273;-81
2023/12/10 07:42:29;;;;;;;3.43;1.63;;;;;;;8.07;97.14;98911.84;5018633;28;20230;-81
2023/12/10 07:44:55;;;;;;;5.27;1.60;;;;;;;7.89;97.68;98915.06;5018564;28;20235;-80
2023/12/10 07:47:21;;;;;;;7.50;1.83;;;;;;;8.09;97.11;98906.59;5016730;28;20291;-81
2023/12/10 07:49:48;;;;;;;4.97;1.60;;;;;;;8.18;97.13;98910.63;5018045;28;20238;-81
2023/12/10 07:52:15;;;;;;;3.13;1.73;;;;;;;7.93;97.90;98921.84;5017608;28;20205;-82
2023/12/10 07:54:42;;;;;;;3.77;2.03;;;;;;;7.86;98.66;98896.94;5018908;28;20268;-80
2023/12/10 07:57:08;;;;;;;2.70;1.30;;;;;;;7.80;98.28;98903.19;5013083;28;20223;-82
2023/12/10 07:59:34;;;;;;;6.03;2.00;;;;;;;7.92;97.96;98910.59;5018498;28;20231;-81
2023/12/10 08:02:01;;;;;;;3.80;1.83;;;;;;;7.84;97.72;98917.78;5018226;28;20236;-80
2023/12/10 08:04:27;;;;;;;3.47;1.57;;;;;;;8.03;97.98;98912.84;5018688;28;20205;-81
2023/12/10 08:06:53;;;;;;;2.57;1.50;;;;;;;7.99;97.07;98924.25;5018370;28;20202;-80
2023/12/10 08:09:21;;;;;;;3.87;1.50;;;;;;;7.90;97.31;98927.97;5018704;28;20229;-79
2023/12/10 08:11:48;;;;;;;2.97;1.73;;;;;;;7.88;97.27;98927.16;5018756;28;20222;-83
2023/12/10 08:14:14;;;;;;;4.13;1.50;;;;;;;8.00;97.32;98936.31;5018430;28;20206;-79
2023/12/10 08:16:41;;;;;;;7.17;2.10;;;;;;;8.00;97.32;98923.31;5019777;28;20199;-80
2023/12/10 08:19:07;;;;;;;4.20;1.30;;;;;;;7.75;97.85;98931.91;5018989;28;20227;-80
2023/12/10 08:21:33;;;;;;;3.07;1.53;;;;;;;8.02;97.43;98939.72;5016803;28;20239;-81
2023/12/10 08:24:00;;;;;;;9.73;4.50;;;;;;;8.00;97.39;98933.72;5018317;28;20204;-80
2023/12/10 08:26:27;;;;;;;3.77;2.03;;;;;;;8.00;97.29;98938.06;5018777;28;20257;-80
2023/12/10 08:28:54;;;;;;;3.27;2.27;;;;;;;7.82;98.32;98940.34;5019003;28;20649;-81
2023/12/10 08:31:20;;;;;;;5.40;2.07;;;;;;;7.85;98.32;98947.19;5018464;28;20663;-80
2023/12/10 08:33:47;;;;;;;4.77;1.60;;;;;;;8.07;98.13;98916.19;5018904;28;20212;-81
2023/12/10 08:36:13;;;;;;;4.27;2.07;;;;;;;8.16;97.24;98936.66;5018759;28;20580;-81
2023/12/10 08:38:40;;;;;;;4.00;2.00;;;;;;;8.04;97.32;98940.50;5018322;28;20254;-81
2023/12/10 08:41:07;;;;;;;3.80;1.80;;;;;;;7.96;97.17;98965.91;5018630;28;20213;-82
2023/12/10 08:43:35;;;;;;;5.37;1.90;;;;;;;8.02;96.37;98963.09;5017617;28;20652;-81
2023/12/10 08:46:02;;;;;;;2.90;2.10;;;;;;;8.11;96.98;98960.22;5014566;28;20670;-79
2023/12/10 08:48:28;;;;;;;5.33;2.03;;;;;;;8.07;97.43;98961.22;5012472;28;20215;-80
2023/12/10 08:50:55;;;;;;;3.87;1.87;;;;;;;7.94;97.68;98975.50;5011742;28;20280;-80
2023/12/10 08:53:21;;;;;;;7.73;2.47;;;;;;;8.06;97.36;98951.69;5010908;28;20202;-80
2023/12/10 08:55:48;;;;;;;3.47;1.83;;;;;;;8.01;97.52;98950.16;5012494;28;20207;-81
2023/12/10 08:58:15;;;;;;;5.10;2.10;;;;;;;7.84;97.80;98951.56;5012837;28;20209;-79
2023/12/10 09:00:43;;;;;;;3.70;1.90;;;;;;;8.18;97.93;98936.63;5012066;28;20227;-80
2023/12/10 09:03:10;;;;;;;4.77;1.83;;;;;;;8.24;97.69;98945.03;5014189;28;20236;-80
2023/12/10 09:05:37;;;;;;;3.63;2.17;;;;;;;8.16;98.07;98953.09;5011111;28;20211;-80
2023/12/10 09:08:03;;;;;;;3.40;1.80;;;;;;;8.26;97.72;98950.19;5006236;28;20236;-78
2023/12/10 09:10:30;;;;;;;5.17;2.03;;;;;;;8.13;97.72;98965.38;5014490;28;20230;-80
2023/12/10 09:12:56;;;;;;;5.83;2.53;;;;;;;8.18;97.98;98966.03;5012027;28;20262;-79
2023/12/10 09:15:22;;;;;;;4.70;2.03;;;;;;;8.10;98.01;98960.25;5013335;28;20270;-80
2023/12/10 09:17:50;;;;;;;3.90;2.90;;;;;;;8.20;98.30;98966.00;5008787;28;20262;-81
2023/12/10 09:20:16;;;;;;;4.30;2.87;;;;;;;8.20;97.78;98956.44;5015011;28;20230;-80
2023/12/10 09:22:43;;;;;;;4.93;1.97;;;;;;;8.13;98.37;98979.19;5010015;28;20226;-81
2023/12/10 09:25:09;;;;;;;3.37;2.20;;;;;;;8.27;98.51;98963.16;5010507;28;20214;-82
2023/12/10 09:27:36;;;;;;;5.33;1.97;;;;;;;8.27;98.73;98957.97;5009391;28;20206;-81
2023/12/10 09:30:02;;;;;;;4.97;1.87;;;;;;;8.20;98.96;98940.00;5012213;28;20223;-81
2023/12/10 09:32:29;;;;;;;5.43;2.03;;;;;;;8.25;99.07;98951.13;5012070;28;20205;-81
2023/12/10 09:34:56;;;;;;;6.83;2.80;;;;;;;8.21;98.72;98954.72;5010663;28;20199;-82
2023/12/10 09:37:23;;;;;;;15.90;14.23;;;;;;;8.35;98.09;98955.94;5012613;28;20205;-81
2023/12/10 09:39:49;;;;;;;17.20;12.63;;;;;;;8.13;97.48;98989.59;5008131;28;20230;-82
2023/12/10 09:42:15;;;;;;;11.07;8.43;;;;;;;8.30;97.81;98988.19;5010439;28;20262;-79
2023/12/10 09:44:42;;;;;;;5.63;2.93;;;;;;;8.28;97.17;98993.44;5008415;28;20678;-80
2023/12/10 09:47:10;;;;;;;5.77;2.30;;;;;;;8.31;97.51;98990.75;5010803;28;20208;-80
2023/12/10 09:49:38;;;;;;;4.37;2.00;;;;;;;8.33;97.82;99009.75;5007396;28;20222;-80
2023/12/10 09:52:08;;;;;;;5.17;1.83;;;;;;;8.36;97.80;99000.97;5009185;28;20213;-80
2023/12/10 09:54:37;;;;;;;4.47;2.03;;;;;;;8.39;98.12;98987.06;5008935;28;20199;-82
2023/12/10 09:57:03;;;;;;;7.27;2.60;;;;;;;8.35;97.72;99007.94;5010527;28;20249;-80
2023/12/10 09:59:30;;;;;;;8.87;2.70;;;;;;;8.32;98.39;99005.47;5007972;28;20789;-79
2023/12/10 10:01:56;;;;;;;5.90;2.50;;;;;;;8.37;98.73;98994.06;5016831;28;20665;-81
2023/12/10 10:04:24;;;;;;;5.03;2.20;;;;;;;8.42;98.54;98992.16;5017144;28;20207;-80
2023/12/10 10:06:51;;;;;;;6.73;2.53;;;;;;;8.50;97.78;99004.03;5015787;28;20654;-80
2023/12/10 10:09:19;;;;;;;8.27;2.23;;;;;;;8.43;99.26;98999.91;5017374;28;20218;-81
2023/12/10 10:11:48;;;;;;;5.83;2.50;;;;;;;8.53;97.98;99009.09;5016914;28;20592;-81
2023/12/10 10:14:14;;;;;;;8.10;4.27;;;;;;;8.49;98.67;99011.88;5016013;28;20688;-80
2023/12/10 10:16:47;;;;;;;8.63;5.53;;;;;;;8.41;98.72;99013.84;5016605;28;20218;-81
2023/12/10 10:19:14;;;;;;;7.20;6.50;;;;;;;8.54;99.25;99010.81;5016752;28;20226;-83
2023/12/10 10:21:41;;;;;;;6.97;2.50;;;;;;;8.52;99.28;99006.56;5015814;28;20568;-81
2023/12/10 10:24:08;;;;;;;5.50;2.60;;;;;;;8.60;98.81;99012.34;5016403;28;20232;-80
2023/12/10 10:26:37;;;;;;;5.47;2.43;;;;;;;8.53;98.35;99037.72;5016500;28;20207;-81
2023/12/10 10:29:04;;;;;;;6.00;2.80;;;;;;;8.62;98.09;99026.19;5010247;28;20223;-80
2023/12/10 10:31:32;;;;;;;8.53;2.40;;;;;;;8.57;97.09;99046.28;5016075;28;20244;-81
2023/12/10 10:34:02;;;;;;;5.37;2.53;;;;;;;8.67;97.29;99065.03;5016313;28;20207;-81
2023/12/10 10:36:29;;;;;;;7.10;2.80;;;;;;;8.53;97.95;99052.47;5015682;28;20203;-80
2023/12/10 10:38:57;;;;;;;6.93;2.13;;;;;;;8.36;98.77;99045.19;5012216;28;20232;-80
2023/12/10 10:41:24;;;;;;;4.90;2.10;;;;;;;8.57;98.29;99037.63;5014986;28;20228;-80
2023/12/10 10:43:52;;;;;;;6.87;2.70;;;;;;;8.51;97.71;99054.28;5015577;28;20608;-78
2023/12/10 10:46:19;;;;;;;5.77;2.20;;;;;;;8.46;97.13;99075.25;5015423;28;20633;-81
2023/12/10 10:48:51;;;;;;;6.43;2.53;;;;;;;8.45;97.93;99068.31;5015039;28;20209;-81
2023/12/10 10:51:20;;;;;;;6.27;2.77;;;;;;;8.58;97.60;99068.75;5012255;28;20205;-81
2023/12/10 10:53:48;;;;;;;6.50;2.10;;;;;;;8.54;96.92;99075.84;5013290;28;20676;-82
2023/12/10 10:56:16;;;;;;;9.57;2.53;;;;;;;8.72;96.39;99070.91;5013420;28;20269;-81
2023/12/10 10:58:43;;;;;;;4.63;1.97;;;;;;;8.67;95.49;99110.09;5013356;28;20201;-79
2023/12/10 11:01:38;;;;;;;7.27;1.93;;;;;;;8.64;95.74;99119.75;5014450;28;20301;-81
2023/12/10 11:04:04;;;;;;;4.90;2.10;;;;;;;8.58;95.53;99133.78;5014481;28;20730;-79
2023/12/10 11:06:31;;;;;;;6.97;2.00;;;;;;;8.59;95.29;99138.09;5012709;28;20732;-82
2023/12/10 11:08:59;;;;;;;5.90;2.20;;;;;;;8.74;94.53;99152.34;5014665;28;20231;-81
2023/12/10 11:11:26;;;;;;;5.30;1.90;;;;;;;8.84;94.72;99153.78;5012032;28;20226;-80
2023/12/10 11:13:54;;;;;;;5.40;2.20;;;;;;;8.95;94.35;99175.09;5008002;28;20215;-79
2023/12/10 11:16:22;;;;;;;9.27;2.27;;;;;;;8.78;93.94;99190.41;5010329;28;20204;-80
2023/12/10 11:18:53;;;;;;;5.40;2.03;;;;;;;8.75;94.42;99180.94;5006641;28;20221;-81
2023/12/10 11:21:19;;;;;;;4.83;1.70;;;;;;;8.78;94.96;99187.81;5009500;28;20213;-81
2023/12/10 11:23:49;;;;;;;6.90;1.93;;;;;;;8.55;95.58;99186.75;5009205;28;20295;-80
2023/12/10 11:26:16;;;;;;;5.27;1.83;;;;;;;8.74;96.85;99152.34;5009456;28;20218;-81
2023/12/10 11:28:42;;;;;;;9.90;2.63;;;;;;;8.87;96.67;99148.47;5006342;28;20237;-82
2023/12/10 11:31:09;;;;;;;9.43;2.10;;;;;;;8.74;95.88;99149.75;5009590;28;20261;-81
2023/12/10 11:33:40;;;;;;;4.90;1.80;;;;;;;8.85;94.86;99165.03;5014091;28;20203;-83
2023/12/10 11:36:07;;;;;;;6.67;1.90;;;;;;;8.78;94.22;99195.63;5007405;28;20213;-80